createdAt,value
2022-09-09T00:00:55.064Z,14.48
2022-09-09T00:02:22.131Z,14.59
2022-09-09T00:03:27.851Z,14.59
2022-09-09T00:04:35.813Z,14.52
2022-09-09T00:05:56.631Z,14.61
2022-09-09T00:07:17.214Z,14.61
2022-09-09T00:08:29.652Z,14.57
2022-09-09T00:09:50.035Z,14.70
2022-09-09T00:11:00.766Z,14.66
2022-09-09T00:12:13.464Z,14.71
2022-09-09T00:13:34.322Z,14.66
2022-09-09T00:15:18.535Z,14.70
2022-09-09T00:16:25.741Z,14.71
2022-09-09T00:17:36.491Z,14.70
2022-09-09T00:18:57.236Z,14.70
2022-09-09T00:20:17.283Z,14.73
2022-09-09T00:21:22.350Z,14.76
2022-09-09T00:22:28.582Z,14.83
2022-09-09T00:23:37.645Z,14.83
2022-09-09T00:24:44.588Z,14.77
2022-09-09T00:25:55.177Z,14.66
2022-09-09T00:27:07.951Z,14.65
2022-09-09T00:28:21.235Z,14.78
2022-09-09T00:29:34.351Z,14.82
2022-09-09T00:30:38.709Z,14.73
2022-09-09T00:31:40.962Z,14.84
2022-09-09T00:32:45.040Z,14.81
2022-09-09T00:33:48.843Z,14.79
2022-09-09T00:35:03.613Z,14.90
2022-09-09T00:36:14.404Z,14.81
2022-09-09T00:37:17.619Z,14.92
2022-09-09T00:38:50.262Z,15.07
2022-09-09T00:39:57.264Z,15.09
2022-09-09T00:41:28.746Z,15.04
2022-09-09T00:42:44.195Z,15.15
2022-09-09T00:43:56.767Z,15.05
2022-09-09T00:45:28.767Z,15.06
2022-09-09T00:46:50.275Z,15.16
2022-09-09T00:47:54.476Z,15.16
2022-09-09T00:49:05.248Z,15.07
2022-09-09T00:50:18.157Z,15.08
2022-09-09T00:51:47.275Z,15.27
2022-09-09T00:53:03.209Z,15.43
2022-09-09T00:54:36.628Z,15.52
2022-09-09T00:55:43.494Z,15.49
2022-09-09T00:56:55.271Z,15.46
2022-09-09T00:57:57.548Z,15.25
2022-09-09T00:59:28.462Z,15.38
2022-09-09T01:00:41.146Z,15.47
2022-09-09T01:01:43.563Z,15.56
2022-09-09T01:03:15.665Z,15.56
2022-09-09T01:04:25.154Z,15.50
2022-09-09T01:05:33.415Z,15.56
2022-09-09T01:06:39.432Z,15.44
2022-09-09T01:07:48.321Z,15.45
2022-09-09T01:09:11.294Z,15.57
2022-09-09T01:10:22.084Z,15.59
2022-09-09T01:11:27.587Z,15.57
2022-09-09T01:12:42.861Z,15.59
2022-09-09T01:13:53.309Z,15.59
2022-09-09T01:15:09.579Z,15.61
2022-09-09T01:16:15.337Z,15.56
2022-09-09T01:17:26.565Z,15.62
2022-09-09T01:18:50.065Z,15.64
2022-09-09T01:20:07.620Z,15.63
2022-09-09T01:23:20.255Z,15.62
2022-09-09T01:24:48.564Z,15.36
2022-09-09T01:26:35.403Z,15.25
2022-09-09T01:27:42.895Z,15.16
2022-09-09T01:28:53.462Z,15.09
2022-09-09T01:30:00.623Z,15.15
2022-09-09T01:31:10.056Z,15.03
2022-09-09T01:32:43.035Z,15.03
2022-09-09T01:33:46.336Z,14.90
2022-09-09T01:34:51.123Z,14.91
2022-09-09T01:36:01.630Z,14.86
2022-09-09T01:37:11.591Z,14.98
2022-09-09T01:38:16.295Z,14.86
2022-09-09T01:39:18.760Z,14.97
2022-09-09T01:40:25.815Z,14.91
2022-09-09T01:41:28.953Z,15.04
2022-09-09T01:42:38.782Z,15.08
2022-09-09T01:43:41.269Z,14.98
2022-09-09T01:44:43.622Z,15.14
2022-09-09T01:45:50.107Z,15.20
2022-09-09T01:46:52.505Z,15.23
2022-09-09T01:47:57.550Z,15.30
2022-09-09T01:49:35.109Z,15.35
2022-09-09T01:50:44.859Z,15.66
2022-09-09T01:51:52.307Z,15.93
2022-09-09T01:53:00.658Z,16.08
2022-09-09T01:54:07.418Z,16.10
2022-09-09T01:55:10.776Z,16.19
2022-09-09T01:56:48.295Z,16.29
2022-09-09T01:58:20.447Z,16.32
2022-09-09T01:59:36.637Z,16.39
2022-09-09T02:00:50.313Z,16.38
2022-09-09T02:02:19.732Z,16.35
2022-09-09T02:03:34.724Z,16.37
2022-09-09T02:04:52.796Z,16.34
2022-09-09T02:06:15.735Z,16.32
2022-09-09T02:07:42.159Z,16.33
2022-09-09T02:08:58.830Z,16.31
2022-09-09T02:10:17.368Z,16.22
2022-09-09T02:11:29.952Z,16.20
2022-09-09T02:12:45.210Z,16.09
2022-09-09T02:13:50.224Z,16.13
2022-09-09T02:15:00.088Z,16.04
2022-09-09T02:16:13.152Z,16.03
2022-09-09T02:17:22.332Z,15.95
2022-09-09T02:19:05.886Z,16.02
2022-09-09T02:20:20.724Z,15.99
2022-09-09T02:21:31.428Z,15.91
2022-09-09T02:22:35.534Z,15.98
2022-09-09T02:23:40.764Z,16.04
2022-09-09T02:24:47.178Z,16.09
2022-09-09T02:25:59.438Z,16.03
2022-09-09T02:27:07.421Z,15.96
2022-09-09T02:28:11.561Z,15.89
2022-09-09T02:29:22.852Z,15.89
2022-09-09T02:30:28.257Z,15.96
2022-09-09T02:31:36.454Z,16.00
2022-09-09T02:32:44.221Z,16.07
2022-09-09T02:33:59.770Z,15.91
2022-09-09T02:35:10.038Z,15.94
2022-09-09T02:36:17.246Z,15.86
2022-09-09T02:37:24.497Z,15.77
2022-09-09T02:38:34.481Z,15.88
2022-09-09T02:39:42.904Z,15.74
2022-09-09T02:40:51.711Z,15.75
2022-09-09T02:41:54.364Z,15.67
2022-09-09T02:43:05.234Z,15.58
2022-09-09T02:44:20.427Z,15.53
2022-09-09T02:45:32.015Z,15.54
2022-09-09T02:46:54.430Z,15.50
2022-09-09T02:48:19.977Z,15.64
2022-09-09T02:50:00.347Z,15.65
2022-09-09T02:51:11.505Z,15.62
2022-09-09T02:52:21.833Z,15.61
2022-09-09T02:53:45.863Z,15.50
2022-09-09T02:54:56.055Z,15.53
2022-09-09T02:56:10.169Z,15.52
2022-09-09T02:57:28.814Z,15.47
2022-09-09T02:58:31.471Z,15.53
2022-09-09T02:59:39.821Z,15.58
2022-09-09T03:00:42.642Z,15.50
2022-09-09T03:01:45.011Z,15.40
2022-09-09T03:02:47.572Z,15.44
2022-09-09T03:03:49.957Z,15.54
2022-09-09T03:04:53.961Z,15.64
2022-09-09T03:05:57.855Z,15.52
2022-09-09T03:07:02.067Z,15.60
2022-09-09T03:08:05.652Z,15.65
2022-09-09T03:09:08.983Z,15.70
2022-09-09T03:10:11.610Z,15.77
2022-09-09T03:11:15.005Z,15.78
2022-09-09T03:12:18.595Z,15.79
2022-09-09T03:13:20.978Z,15.82
2022-09-09T03:14:26.001Z,15.83
2022-09-09T03:15:30.991Z,15.84
2022-09-09T03:16:35.256Z,15.88
2022-09-09T03:17:38.352Z,15.90
2022-09-09T03:18:40.637Z,15.83
2022-09-09T03:19:42.950Z,15.80
2022-09-09T03:20:49.535Z,15.82
2022-09-09T03:21:52.831Z,15.78
2022-09-09T03:22:56.470Z,15.77
2022-09-09T03:23:58.722Z,15.81
2022-09-09T03:25:01.393Z,15.71
2022-09-09T03:26:04.144Z,15.73
2022-09-09T03:27:16.392Z,15.66
2022-09-09T03:28:19.575Z,15.60
2022-09-09T03:29:22.592Z,15.53
2022-09-09T03:30:28.450Z,15.35
2022-09-09T03:31:32.214Z,15.31
2022-09-09T03:32:35.095Z,15.33
2022-09-09T03:33:42.068Z,15.27
2022-09-09T03:34:50.515Z,15.31
2022-09-09T03:35:54.029Z,15.41
2022-09-09T03:36:56.759Z,15.26
2022-09-09T03:37:59.065Z,15.17
2022-09-09T03:39:03.888Z,15.29
2022-09-09T03:40:07.738Z,15.37
2022-09-09T03:41:10.270Z,15.27
2022-09-09T03:42:15.177Z,15.28
2022-09-09T03:43:17.605Z,15.35
2022-09-09T03:44:20.107Z,15.43
2022-09-09T03:45:22.977Z,15.46
2022-09-09T03:46:26.401Z,15.49
2022-09-09T03:47:30.069Z,15.53
2022-09-09T03:48:39.038Z,15.61
2022-09-09T03:49:41.563Z,15.61
2022-09-09T03:50:48.715Z,15.66
2022-09-09T03:51:51.186Z,15.68
2022-09-09T03:52:53.420Z,15.72
2022-09-09T03:53:59.110Z,15.55
2022-09-09T03:55:03.090Z,15.42
2022-09-09T03:56:07.590Z,15.25
2022-09-09T03:57:13.324Z,15.15
2022-09-09T03:58:17.131Z,15.10
2022-09-09T03:59:19.688Z,15.00
2022-09-09T04:00:21.948Z,14.94
2022-09-09T04:01:28.890Z,15.01
2022-09-09T04:02:31.607Z,14.96
2022-09-09T04:03:33.961Z,14.95
2022-09-09T04:04:36.360Z,14.95
2022-09-09T04:05:43.117Z,14.95
2022-09-09T04:06:45.409Z,14.88
2022-09-09T04:07:48.268Z,14.80
2022-09-09T04:08:50.678Z,14.76
2022-09-09T04:09:54.567Z,14.70
2022-09-09T04:10:58.831Z,14.73
2022-09-09T04:12:02.364Z,14.69
2022-09-09T04:13:06.020Z,14.73
2022-09-09T04:14:09.858Z,14.71
2022-09-09T04:15:12.227Z,14.75
2022-09-09T04:16:15.758Z,14.68
2022-09-09T04:17:19.301Z,14.61
2022-09-09T04:18:22.214Z,14.68
2022-09-09T04:19:24.640Z,14.70
2022-09-09T04:20:26.963Z,14.75
2022-09-09T04:21:29.297Z,14.77
2022-09-09T04:22:31.918Z,14.76
2022-09-09T04:23:35.174Z,14.87
2022-09-09T04:24:37.625Z,14.62
2022-09-09T04:25:45.688Z,14.46
2022-09-09T04:26:48.216Z,14.40
2022-09-09T04:27:59.021Z,14.41
2022-09-09T04:29:02.190Z,14.37
2022-09-09T04:30:05.510Z,14.37
2022-09-09T04:31:15.699Z,14.37
2022-09-09T04:32:18.541Z,14.38
2022-09-09T04:33:21.375Z,14.37
2022-09-09T04:34:26.640Z,14.32
2022-09-09T04:35:30.310Z,14.48
2022-09-09T04:36:33.451Z,14.49
2022-09-09T04:37:39.208Z,14.44
2022-09-09T04:38:41.562Z,14.45
2022-09-09T04:39:43.912Z,14.39
2022-09-09T04:40:49.732Z,14.52
2022-09-09T04:41:52.045Z,14.51
2022-09-09T04:42:54.468Z,14.51
2022-09-09T04:43:56.984Z,14.57
2022-09-09T04:44:59.288Z,14.55
2022-09-09T04:46:01.849Z,14.55
2022-09-09T04:47:04.173Z,14.59
2022-09-09T04:48:06.459Z,14.44
2022-09-09T04:49:13.140Z,14.45
2022-09-09T04:50:19.112Z,14.51
2022-09-09T04:51:23.693Z,14.46
2022-09-09T04:52:27.427Z,14.44
2022-09-09T04:53:29.668Z,14.51
2022-09-09T04:54:32.000Z,14.42
2022-09-09T04:55:35.951Z,14.46
2022-09-09T04:56:38.315Z,14.51
2022-09-09T04:57:41.056Z,14.55
2022-09-09T04:58:46.761Z,14.45
2022-09-09T04:59:50.222Z,14.36
2022-09-09T05:00:52.824Z,14.37
2022-09-09T05:01:56.596Z,14.34
2022-09-09T05:03:02.722Z,14.43
2022-09-09T05:04:05.565Z,14.55
2022-09-09T05:05:12.184Z,14.53
2022-09-09T05:06:17.956Z,14.49
2022-09-09T05:07:21.424Z,14.47
2022-09-09T05:08:23.960Z,14.43
2022-09-09T05:09:30.421Z,14.47
2022-09-09T05:10:34.537Z,14.62
2022-09-09T05:11:37.785Z,14.71
2022-09-09T05:12:55.610Z,14.79
2022-09-09T05:14:02.290Z,14.79
2022-09-09T05:15:07.223Z,14.82
2022-09-09T05:16:12.199Z,14.87
2022-09-09T05:17:16.311Z,14.75
2022-09-09T05:18:18.917Z,14.78
2022-09-09T05:19:21.603Z,14.73
2022-09-09T05:20:25.074Z,14.71
2022-09-09T05:21:27.609Z,14.84
2022-09-09T05:22:40.876Z,14.96
2022-09-09T05:23:52.964Z,14.82
2022-09-09T05:24:56.579Z,14.93
2022-09-09T05:25:59.338Z,14.91
2022-09-09T05:27:03.521Z,14.79
2022-09-09T05:28:08.620Z,14.77
2022-09-09T05:29:11.086Z,14.87
2022-09-09T05:30:20.980Z,14.90
2022-09-09T05:31:23.866Z,15.04
2022-09-09T05:32:28.139Z,15.03
2022-09-09T05:33:31.527Z,15.12
2022-09-09T05:34:34.296Z,15.13
2022-09-09T05:35:37.166Z,16.18
2022-09-09T05:36:40.586Z,18.10
2022-09-09T05:37:43.831Z,17.70
2022-09-09T05:38:46.710Z,16.88
2022-09-09T05:39:50.409Z,16.48
2022-09-09T05:40:54.462Z,16.53
2022-09-09T05:41:56.971Z,16.31
2022-09-09T05:43:01.502Z,16.08
2022-09-09T05:44:04.646Z,15.93
2022-09-09T05:45:12.757Z,15.72
2022-09-09T05:46:23.715Z,15.65
2022-09-09T05:47:28.865Z,15.58
2022-09-09T05:48:34.308Z,15.59
2022-09-09T05:49:37.796Z,15.77
2022-09-09T05:50:40.675Z,15.78
2022-09-09T05:51:44.040Z,15.61
2022-09-09T05:52:50.992Z,15.71
2022-09-09T05:53:54.083Z,15.67
2022-09-09T05:54:58.590Z,15.76
2022-09-09T05:56:04.467Z,15.76
2022-09-09T05:57:09.779Z,15.77
2022-09-09T05:58:12.918Z,15.83
2022-09-09T05:59:15.990Z,15.74
2022-09-09T06:00:19.186Z,15.71
2022-09-09T06:01:27.409Z,15.81
2022-09-09T06:02:30.336Z,15.70
2022-09-09T06:03:34.141Z,15.93
2022-09-09T06:04:36.852Z,16.39
2022-09-09T06:05:40.406Z,16.56
2022-09-09T06:06:44.231Z,16.42
2022-09-09T06:07:54.134Z,16.23
2022-09-09T06:08:59.256Z,16.22
2022-09-09T06:10:07.275Z,16.20
2022-09-09T06:11:12.988Z,16.12
2022-09-09T06:12:15.500Z,16.27
2022-09-09T06:13:18.632Z,16.72
2022-09-09T06:14:23.169Z,17.43
2022-09-09T06:15:28.287Z,17.30
2022-09-09T06:16:33.792Z,17.22
2022-09-09T06:17:36.500Z,17.35
2022-09-09T06:18:40.195Z,18.31
2022-09-09T06:19:43.239Z,19.83
2022-09-09T06:20:56.376Z,19.67
2022-09-09T06:21:59.747Z,19.60
2022-09-09T06:23:04.728Z,19.45
2022-09-09T06:24:11.255Z,19.04
2022-09-09T06:25:14.845Z,18.71
2022-09-09T06:26:20.160Z,18.25
2022-09-09T06:27:24.409Z,18.18
2022-09-09T06:28:26.952Z,17.95
2022-09-09T06:29:30.545Z,17.85
2022-09-09T06:30:33.605Z,18.09
2022-09-09T06:31:43.186Z,18.12
2022-09-09T06:32:59.492Z,17.85
2022-09-09T06:34:02.394Z,17.95
2022-09-09T06:35:10.025Z,17.83
2022-09-09T06:36:27.205Z,17.77
2022-09-09T06:37:30.351Z,17.60
2022-09-09T06:38:50.653Z,17.65
2022-09-09T06:39:55.734Z,17.93
2022-09-09T06:41:00.524Z,17.90
2022-09-09T06:42:05.016Z,18.15
2022-09-09T06:43:24.238Z,18.11
2022-09-09T06:44:30.256Z,18.05
2022-09-09T06:45:37.416Z,18.00
2022-09-09T06:46:40.778Z,18.01
2022-09-09T06:47:45.646Z,18.22
2022-09-09T06:48:48.488Z,18.14
2022-09-09T06:49:51.976Z,18.16
2022-09-09T06:51:13.738Z,18.15
2022-09-09T06:52:19.264Z,18.17
2022-09-09T06:53:23.251Z,18.26
2022-09-09T06:54:26.503Z,18.12
2022-09-09T06:55:30.243Z,18.00
2022-09-09T06:56:37.684Z,17.75
2022-09-09T06:57:45.010Z,17.90
2022-09-09T06:58:56.034Z,17.88
2022-09-09T07:00:03.380Z,17.76
2022-09-09T07:01:07.646Z,17.84
2022-09-09T07:02:12.550Z,17.80
2022-09-09T07:03:15.493Z,17.78
2022-09-09T07:04:18.395Z,17.90
2022-09-09T07:05:22.721Z,17.84
2022-09-09T07:06:30.401Z,17.84
2022-09-09T07:07:34.999Z,17.78
2022-09-09T07:08:37.904Z,17.80
2022-09-09T07:09:41.690Z,17.91
2022-09-09T07:10:45.261Z,17.92
2022-09-09T07:11:50.482Z,17.84
2022-09-09T07:12:55.807Z,18.07
2022-09-09T07:14:02.087Z,18.15
2022-09-09T07:15:06.099Z,18.24
2022-09-09T07:16:11.438Z,18.35
2022-09-09T07:17:14.080Z,18.52
2022-09-09T07:18:16.973Z,18.63
2022-09-09T07:19:20.248Z,18.93
2022-09-09T07:20:26.795Z,18.85
2022-09-09T07:21:31.603Z,18.91
2022-09-09T07:22:34.591Z,18.97
2022-09-09T07:23:38.045Z,19.09
2022-09-09T07:24:40.751Z,18.98
2022-09-09T07:25:46.657Z,18.96
2022-09-09T07:26:53.002Z,19.23
2022-09-09T07:27:57.133Z,19.07
2022-09-09T07:28:59.673Z,19.13
2022-09-09T07:30:03.636Z,19.31
2022-09-09T07:31:17.846Z,19.62
2022-09-09T07:32:20.741Z,19.44
2022-09-09T07:33:25.118Z,19.78
2022-09-09T07:34:27.779Z,19.78
2022-09-09T07:35:30.270Z,20.07
2022-09-09T07:36:39.258Z,20.33
2022-09-09T07:37:47.788Z,20.56
2022-09-09T07:38:56.172Z,20.10
2022-09-09T07:39:59.811Z,20.24
2022-09-09T07:41:08.103Z,20.09
2022-09-09T07:42:12.757Z,20.25
2022-09-09T07:43:18.642Z,20.11
2022-09-09T07:44:25.948Z,20.02
2022-09-09T07:45:44.969Z,19.89
2022-09-09T07:46:48.518Z,19.92
2022-09-09T07:47:57.889Z,20.00
2022-09-09T07:49:01.803Z,20.01
2022-09-09T07:50:05.416Z,19.94
2022-09-09T07:51:12.759Z,19.86
2022-09-09T07:52:18.115Z,19.56
2022-09-09T07:53:24.026Z,19.25
2022-09-09T07:54:27.194Z,19.33
2022-09-09T07:55:29.957Z,19.27
2022-09-09T07:56:33.711Z,19.21
2022-09-09T07:57:37.352Z,18.94
2022-09-09T07:58:42.197Z,19.13
2022-09-09T07:59:46.097Z,19.32
2022-09-09T08:00:49.217Z,19.94
2022-09-09T08:01:55.735Z,20.14
2022-09-09T08:03:03.052Z,20.55
2022-09-09T08:04:09.610Z,20.87
2022-09-09T08:05:13.761Z,20.92
2022-09-09T08:06:16.859Z,21.06
2022-09-09T08:07:19.732Z,21.31
2022-09-09T08:08:27.764Z,21.11
2022-09-09T08:09:30.694Z,21.12
2022-09-09T08:11:03.765Z,21.44
2022-09-09T08:12:08.821Z,21.42
2022-09-09T08:13:18.503Z,21.47
2022-09-09T08:14:24.184Z,21.67
2022-09-09T08:15:27.084Z,21.93
2022-09-09T08:16:33.024Z,22.05
2022-09-09T08:17:39.141Z,21.82
2022-09-09T08:18:45.033Z,21.75
2022-09-09T08:19:47.544Z,22.39
2022-09-09T08:20:55.026Z,22.32
2022-09-09T08:21:57.582Z,22.37
2022-09-09T08:23:00.110Z,22.56
2022-09-09T08:24:03.621Z,22.43
2022-09-09T08:25:07.454Z,22.40
2022-09-09T08:26:17.475Z,22.66
2022-09-09T08:27:20.240Z,22.34
2022-09-09T08:28:23.630Z,22.70
2022-09-09T08:29:26.388Z,22.77
2022-09-09T08:30:31.028Z,22.71
2022-09-09T08:31:38.836Z,22.28
2022-09-09T08:32:45.543Z,22.74
2022-09-09T08:33:53.097Z,23.05
2022-09-09T08:35:01.059Z,23.29
2022-09-09T08:36:06.787Z,23.50
2022-09-09T08:37:09.565Z,23.37
2022-09-09T08:38:15.721Z,23.63
2022-09-09T08:39:20.319Z,23.30
2022-09-09T08:40:33.679Z,23.54
2022-09-09T08:41:36.360Z,22.72
2022-09-09T08:42:53.852Z,22.74
2022-09-09T08:44:12.354Z,23.31
2022-09-09T08:45:29.606Z,23.21
2022-09-09T08:46:41.248Z,22.88
2022-09-09T08:48:08.214Z,23.03
2022-09-09T08:49:20.002Z,23.53
2022-09-09T08:51:43.048Z,23.71
2022-09-09T08:52:56.518Z,23.24
2022-09-09T08:54:02.503Z,23.20
2022-09-09T08:55:25.601Z,23.07
2022-09-09T08:56:32.966Z,22.63
2022-09-09T08:57:35.831Z,22.32
2022-09-09T08:58:46.781Z,21.42
2022-09-09T08:59:52.525Z,20.91
2022-09-09T09:01:24.641Z,20.02
2022-09-09T09:02:50.459Z,19.65
2022-09-09T09:04:14.702Z,19.34
2022-09-09T09:05:44.325Z,19.37
2022-09-09T09:07:15.092Z,19.12
2022-09-09T09:08:35.051Z,18.94
2022-09-09T09:10:09.085Z,18.92
2022-09-09T09:11:18.820Z,19.14
2022-09-09T09:12:27.927Z,19.31
2022-09-09T09:13:50.366Z,19.53
2022-09-09T09:14:56.496Z,20.35
2022-09-09T09:16:12.832Z,20.87
2022-09-09T09:17:20.815Z,20.90
2022-09-09T09:18:24.336Z,21.15
2022-09-09T09:19:31.097Z,21.05
2022-09-09T09:20:45.575Z,21.48
2022-09-09T09:22:00.793Z,21.71
2022-09-09T09:23:06.809Z,20.56
2022-09-09T09:24:23.414Z,20.30
2022-09-09T09:25:41.421Z,20.52
2022-09-09T09:26:45.031Z,21.05
2022-09-09T09:27:52.607Z,21.59
2022-09-09T09:28:58.387Z,21.33
2022-09-09T09:30:30.277Z,21.31
2022-09-09T09:31:30.593Z,20.84
2022-09-09T09:32:36.567Z,20.29
2022-09-09T09:33:54.173Z,20.38
2022-09-09T09:35:05.455Z,20.31
2022-09-09T09:36:09.658Z,19.90
2022-09-09T09:37:24.626Z,19.75
2022-09-09T09:40:08.027Z,20.57
2022-09-09T09:41:10.812Z,21.17
2022-09-09T09:42:16.393Z,21.76
2022-09-09T09:43:43.590Z,21.55
2022-09-09T09:44:51.850Z,21.39
2022-09-09T09:46:17.733Z,21.04
2022-09-09T09:47:26.642Z,21.47
2022-09-09T09:48:35.636Z,21.68
2022-09-09T09:49:39.780Z,21.74
2022-09-09T09:50:53.885Z,21.69
2022-09-09T09:52:01.664Z,21.73
2022-09-09T09:53:10.621Z,21.45
2022-09-09T09:54:22.609Z,20.92
2022-09-09T09:55:32.223Z,21.04
2022-09-09T09:56:35.019Z,21.00
2022-09-09T09:57:45.868Z,20.97
2022-09-09T09:58:52.347Z,20.73
2022-09-09T10:00:24.853Z,20.81
2022-09-09T10:01:38.867Z,20.92
2022-09-09T10:02:48.258Z,20.91
2022-09-09T10:04:00.169Z,21.29
2022-09-09T10:05:07.353Z,21.62
2022-09-09T10:06:11.854Z,21.87
2022-09-09T10:07:23.580Z,22.73
2022-09-09T10:08:28.237Z,22.58
2022-09-09T10:09:33.983Z,22.31
2022-09-09T10:10:57.652Z,22.16
2022-09-09T10:12:15.722Z,22.55
2022-09-09T10:13:37.706Z,22.21
2022-09-09T10:14:59.091Z,22.45
2022-09-09T10:16:38.197Z,22.53
2022-09-09T10:18:10.285Z,23.20
2022-09-09T10:19:34.713Z,23.06
2022-09-09T10:20:55.550Z,23.27
2022-09-09T10:22:21.342Z,22.78
2022-09-09T10:23:49.407Z,22.67
2022-09-09T10:25:29.623Z,22.98
2022-09-09T10:26:40.753Z,23.21
2022-09-09T10:28:06.235Z,22.71
2022-09-09T10:29:14.628Z,21.91
2022-09-09T10:30:34.837Z,21.29
2022-09-09T10:31:50.094Z,21.47
2022-09-09T10:33:11.153Z,20.78
2022-09-09T10:34:36.233Z,20.89
2022-09-09T10:35:55.191Z,21.31
2022-09-09T10:36:57.731Z,21.54
2022-09-09T10:38:21.036Z,21.49
2022-09-09T10:39:43.073Z,21.64
2022-09-09T10:40:56.277Z,22.10
2022-09-09T10:42:13.282Z,22.42
2022-09-09T10:43:31.018Z,22.07
2022-09-09T10:44:45.346Z,22.18
2022-09-09T10:46:06.061Z,22.55
2022-09-09T10:47:27.904Z,23.13
2022-09-09T10:48:49.323Z,22.64
2022-09-09T10:50:10.160Z,21.93
2022-09-09T10:51:23.746Z,22.08
2022-09-09T10:52:32.497Z,21.52
2022-09-09T10:54:06.944Z,21.55
2022-09-09T10:55:18.208Z,21.84
2022-09-09T10:56:24.897Z,21.36
2022-09-09T10:57:31.049Z,21.50
2022-09-09T10:58:39.371Z,21.56
2022-09-09T10:59:48.343Z,21.61
2022-09-09T11:00:58.292Z,21.23
2022-09-09T11:02:13.799Z,21.38
2022-09-09T11:03:30.627Z,21.53
2022-09-09T11:05:05.602Z,21.58
2022-09-09T11:06:15.845Z,21.71
2022-09-09T11:07:34.500Z,21.37
2022-09-09T11:08:40.069Z,21.73
2022-09-09T11:09:51.927Z,21.73
2022-09-09T11:11:03.568Z,21.64
2022-09-09T11:12:12.126Z,21.48
2022-09-09T11:13:53.141Z,22.36
2022-09-09T11:15:05.046Z,22.17
2022-09-09T11:16:35.422Z,22.22
2022-09-09T11:17:45.025Z,22.41
2022-09-09T11:18:48.725Z,22.74
2022-09-09T11:19:52.207Z,22.78
2022-09-09T11:21:04.935Z,22.45
2022-09-09T11:22:15.998Z,22.32
2022-09-09T11:23:42.071Z,22.31
2022-09-09T11:25:14.157Z,21.51
2022-09-09T11:26:30.544Z,21.51
2022-09-09T11:27:51.923Z,21.37
2022-09-09T11:29:02.819Z,21.24
2022-09-09T11:30:38.142Z,21.13
2022-09-09T11:32:12.367Z,21.17
2022-09-09T11:33:46.304Z,20.91
2022-09-09T11:35:09.438Z,20.78
2022-09-09T11:36:11.791Z,21.11
2022-09-09T11:37:41.578Z,21.17
2022-09-09T11:38:52.194Z,21.14
2022-09-09T11:40:15.657Z,21.10
2022-09-09T11:41:21.974Z,21.15
2022-09-09T11:42:27.172Z,21.33
2022-09-09T11:43:32.569Z,21.67
2022-09-09T11:44:35.222Z,21.84
2022-09-09T11:45:38.033Z,22.09
2022-09-09T11:46:42.524Z,22.08
2022-09-09T11:47:54.343Z,22.12
2022-09-09T11:49:02.318Z,21.94
2022-09-09T11:50:10.513Z,21.69
2022-09-09T11:51:26.876Z,21.79
2022-09-09T11:52:44.462Z,21.32
2022-09-09T11:53:59.675Z,21.62
2022-09-09T11:55:24.938Z,22.15
2022-09-09T11:56:42.828Z,22.58
2022-09-09T11:57:49.450Z,22.82
2022-09-09T11:59:04.814Z,22.90
2022-09-09T12:00:08.879Z,22.98
2022-09-09T12:01:45.932Z,22.93
2022-09-09T12:02:51.792Z,22.73
2022-09-09T12:04:03.015Z,22.98
2022-09-09T12:05:15.301Z,23.06
2022-09-09T12:06:21.071Z,23.11
2022-09-09T12:07:27.707Z,23.23
2022-09-09T12:08:31.034Z,22.65
2022-09-09T12:09:52.864Z,22.92
2022-09-09T12:10:58.701Z,22.66
2022-09-09T12:12:27.334Z,22.89
2022-09-09T12:13:30.184Z,22.80
2022-09-09T12:14:58.496Z,23.30
2022-09-09T12:16:03.678Z,23.02
2022-09-09T12:17:23.207Z,23.15
2022-09-09T12:18:38.095Z,23.19
2022-09-09T12:19:40.868Z,23.06
2022-09-09T12:21:05.220Z,23.05
2022-09-09T12:22:33.010Z,22.72
2022-09-09T12:23:48.170Z,22.75
2022-09-09T12:24:56.747Z,23.11
2022-09-09T12:26:17.650Z,22.94
2022-09-09T12:28:05.517Z,23.21
2022-09-09T12:29:20.124Z,23.18
2022-09-09T12:30:44.539Z,22.60
2022-09-09T12:32:12.414Z,22.20
2022-09-09T12:33:20.358Z,22.33
2022-09-09T12:34:42.693Z,22.51
2022-09-09T12:35:53.579Z,22.65
2022-09-09T12:37:23.561Z,22.64
2022-09-09T12:38:46.855Z,22.88
2022-09-09T12:40:00.447Z,22.90
2022-09-09T12:41:03.212Z,23.21
2022-09-09T12:42:05.893Z,23.58
2022-09-09T12:43:24.659Z,22.84
2022-09-09T12:44:31.281Z,23.08
2022-09-09T12:45:37.841Z,23.01
2022-09-09T12:46:50.161Z,23.16
2022-09-09T12:49:01.833Z,23.30
2022-09-09T12:50:10.292Z,23.35
2022-09-09T12:51:35.345Z,23.90
2022-09-09T12:52:39.970Z,24.23
2022-09-09T12:53:42.793Z,24.35
2022-09-09T12:54:48.165Z,24.21
2022-09-09T12:55:58.898Z,23.63
2022-09-09T12:57:01.809Z,23.20
2022-09-09T12:58:06.581Z,22.98
2022-09-09T12:59:24.933Z,22.83
2022-09-09T13:00:28.152Z,22.61
2022-09-09T13:01:36.565Z,22.72
2022-09-09T13:02:51.389Z,22.71
2022-09-09T13:03:54.635Z,22.49
2022-09-09T13:05:14.022Z,22.56
2022-09-09T13:06:30.951Z,22.66
2022-09-09T13:07:33.414Z,22.77
2022-09-09T13:08:36.060Z,22.16
2022-09-09T13:09:38.856Z,21.75
2022-09-09T13:11:05.568Z,21.63
2022-09-09T13:12:15.913Z,21.45
2022-09-09T13:13:22.568Z,21.49
2022-09-09T13:14:38.483Z,21.30
2022-09-09T13:15:41.010Z,21.47
2022-09-09T13:16:44.099Z,21.52
2022-09-09T13:17:52.621Z,22.05
2022-09-09T13:18:56.908Z,21.86
2022-09-09T13:19:59.520Z,21.89
2022-09-09T13:21:03.074Z,22.00
2022-09-09T13:22:21.480Z,22.14
2022-09-09T13:23:31.132Z,22.18
2022-09-09T13:24:35.928Z,22.14
2022-09-09T13:25:43.744Z,22.05
2022-09-09T13:26:57.592Z,21.90
2022-09-09T13:28:05.099Z,21.87
2022-09-09T13:29:33.934Z,21.56
2022-09-09T13:30:41.281Z,21.43
2022-09-09T13:31:44.471Z,21.75
2022-09-09T13:32:47.145Z,22.06
2022-09-09T13:33:49.831Z,22.06
2022-09-09T13:35:05.282Z,21.94
2022-09-09T13:36:13.216Z,21.71
2022-09-09T13:37:42.269Z,21.43
2022-09-09T13:38:47.644Z,21.56
2022-09-09T13:39:55.468Z,21.44
2022-09-09T13:41:03.317Z,21.58
2022-09-09T13:42:08.026Z,21.82
2022-09-09T13:43:22.832Z,21.89
2022-09-09T13:44:29.739Z,22.41
2022-09-09T13:45:32.616Z,22.41
2022-09-09T13:46:41.706Z,21.89
2022-09-09T13:47:44.669Z,22.04
2022-09-09T13:49:18.574Z,21.85
2022-09-09T13:50:27.967Z,21.23
2022-09-09T13:51:40.770Z,21.79
2022-09-09T13:52:43.927Z,21.97
2022-09-09T13:53:47.552Z,21.63
2022-09-09T13:54:52.207Z,21.51
2022-09-09T13:55:55.187Z,21.71
2022-09-09T13:56:57.908Z,21.55
2022-09-09T13:58:06.345Z,21.42
2022-09-09T13:59:18.383Z,21.34
2022-09-09T14:00:22.139Z,21.70
2022-09-09T14:01:29.352Z,22.13
2022-09-09T14:02:32.444Z,22.53
2022-09-09T14:03:38.372Z,22.23
2022-09-09T14:04:42.463Z,22.07
2022-09-09T14:05:46.301Z,21.85
2022-09-09T14:06:50.255Z,22.02
2022-09-09T14:07:53.434Z,22.30
2022-09-09T14:08:56.051Z,22.42
2022-09-09T14:09:58.796Z,22.11
2022-09-09T14:11:02.062Z,22.47
2022-09-09T14:12:06.136Z,22.45
2022-09-09T14:13:10.043Z,22.83
2022-09-09T14:14:15.996Z,22.43
2022-09-09T14:15:23.304Z,22.55
2022-09-09T14:16:28.595Z,22.73
2022-09-09T14:17:32.948Z,22.72
2022-09-09T14:18:38.746Z,22.69
2022-09-09T14:19:49.765Z,22.21
2022-09-09T14:20:57.916Z,21.99
2022-09-09T14:22:02.916Z,21.55
2022-09-09T14:23:06.996Z,21.43
2022-09-09T14:24:11.243Z,21.37
2022-09-09T14:25:16.017Z,21.12
2022-09-09T14:26:22.514Z,21.19
2022-09-09T14:27:27.701Z,22.10
2022-09-09T14:28:54.833Z,22.59
2022-09-09T14:29:54.844Z,22.85
2022-09-09T14:31:02.195Z,23.33
2022-09-09T14:32:12.072Z,23.04
2022-09-09T14:33:16.971Z,22.88
2022-09-09T14:34:19.617Z,22.80
2022-09-09T14:35:23.134Z,23.24
2022-09-09T14:36:25.462Z,23.39
2022-09-09T14:37:28.421Z,23.20
2022-09-09T14:38:34.531Z,23.71
2022-09-09T14:39:36.944Z,23.74
2022-09-09T14:40:39.425Z,23.80
2022-09-09T14:41:41.886Z,24.08
2022-09-09T14:42:44.388Z,24.31
2022-09-09T14:43:47.432Z,24.40
2022-09-09T14:44:49.693Z,24.37
2022-09-09T14:45:55.271Z,23.96
2022-09-09T14:46:57.587Z,23.61
2022-09-09T14:48:00.545Z,23.32
2022-09-09T14:49:03.018Z,22.79
2022-09-09T14:50:07.106Z,23.00
2022-09-09T14:51:10.707Z,22.79
2022-09-09T14:52:14.060Z,22.74
2022-09-09T14:53:17.839Z,22.76
2022-09-09T14:54:20.202Z,22.76
2022-09-09T14:55:22.609Z,22.72
2022-09-09T14:56:28.145Z,22.53
2022-09-09T14:57:31.035Z,22.42
2022-09-09T14:58:33.950Z,22.32
2022-09-09T14:59:36.313Z,22.14
2022-09-09T15:00:39.407Z,21.69